首页
METAR-TAF:

METAR-TAF

机场 :

奥利弗·坦博国际机场

约翰内斯堡, 南非共和國

纬度: 26-08S, 经度: 028-14E, 海拔: 1694米

当前天气观测

该预报发布于1小时和3分钟前的10:00 UTC
风速5节,风向多变
温度 29°C
湿度 25%
气压 1024 hPa
能见度10公里或以上
1500米以下无云,无积雨云

METAR: FAOR 151000Z VRB05KT CAVOK 29/07 Q1024 NOSIG

时间: 13:03 (11:03 UTC)

预报

该预报发布于7小时和3分钟前的04:00 UTC
预报有效从15日的 06点(UTC)到 16日的 12点(UTC)
风速10节,风向
能见度10公里或以上
1500米以下无云,无积雨云
成为
从 15日的 11点(UTC)到 15日的 13点(UTC)
少量云层高于5000英尺, 塔状积云.
几率 40% :
短暂存在
从 15日的 15点(UTC)到 15日的 21点(UTC)
风速17节,风向东转东北
能見度: 5000
少量云层高于4500英尺, 积雨云.
雷暴, 雨
从 15日的 2200点(UTC)
风速8节,风向
能见度10公里或以上
1500米以下无云,无积雨云

TAF: FAOR 150400Z 1506/1612 36010KT CAVOK BECMG 1511/1513 FEW050TCU PROB40 TEMPO 1515/1521 07017KT 5000 TSRA FEW045CB FM152200 36008KT CAVOK TX32/1513Z TN16/1603Z

超过4000个机场的气象观测和天气预报(METAR&TAF报告)。

可查询的气象台以黄色和红色小点在地图上表示。

将鼠标移到小点上方,可查看气象台名称。

然后点击查看天气观测和预报。

如需切换地图:点击带黑十字的绿色按钮放大地图;点击带横线的绿色按钮缩小地图;或者点击绿色箭头查看邻近地区的地图。


METAR-TAF: